Ocean Outback — 9V8072 — position and weather

sailwx.info

Track history (hours):
 
Tides and Currents Weather Stations Pressure Air Temp Water Temp Dewpoint Dewpoint Depression Visibility Wind Speed Wind Dir Waves Ship Positions

Ocean Outback

Last reported at 2016-Feb-01 07:32 UTC. Time now 2016-Feb-12 22:34 UTC.
Position N 01°18' E 103°39'.
Warning: this ship's position is 11 days out of date.

Length 136 m; draft 6.8 m.

Type: Ship. MMSI: 563745000.

Date/timePositionNaut miles runAvg speedWind from/ knotsBaromVisibWave heightAir tempDewpointWater temp
2016-Feb-01 07:32N 01°18' E 103°39'6 6.2
2016-Feb-01 06:33N 01°11' E 103°40'8 8.4
2016-Feb-01 05:33N 01°11' E 103°48'7 6.1
2016-Feb-01 04:25N 01°16' E 103°53'0 0.0
2016-Feb-01 03:28N 01°16' E 103°53'0 0.0
2016-Feb-01 02:31N 01°16' E 103°53'0 0.1
2016-Feb-01 01:31N 01°16' E 103°53'0 0.0
2016-Feb-01 00:28N 01°16' E 103°53'0 0.0
2016-Jan-31 23:28N 01°16' E 103°53'0 0.0
2016-Jan-31 22:28N 01°16' E 103°53'0 0.0
2016-Jan-31 21:28N 01°16' E 103°53'0 0.0
2016-Jan-31 20:31N 01°16' E 103°53'0 0.1
2016-Jan-31 19:31N 01°16' E 103°53'0 0.0
2016-Jan-31 18:31N 01°16' E 103°53'0 0.0
2016-Jan-31 17:28N 01°16' E 103°53'0 0.0
2016-Jan-31 16:31N 01°16' E 103°53'0 0.0
2016-Jan-31 15:31N 01°16' E 103°53'0 0.0
2016-Jan-31 14:31N 01°16' E 103°53'0 0.0
2016-Jan-31 13:31N 01°16' E 103°53'0 0.0
2016-Jan-31 12:31N 01°16' E 103°53'0 0.1
2016-Jan-31 11:28N 01°16' E 103°53'0 0.0
2016-Jan-31 10:31N 01°16' E 103°53'0 0.0
2016-Jan-31 09:31N 01°16' E 103°53'0 0.0
2016-Jan-31 08:28N 01°16' E 103°53'0 0.0
2016-Jan-31 07:31N 01°16' E 103°53'0 0.1
2016-Jan-31 06:31N 01°16' E 103°53'0 0.0
2016-Jan-31 05:31N 01°16' E 103°53'0 0.0
2016-Jan-31 04:31N 01°16' E 103°53'0 0.0
2016-Jan-31 03:28N 01°16' E 103°53'0 0.0
2016-Jan-31 02:25N 01°16' E 103°53'0 0.0
2016-Jan-31 01:31N 01°16' E 103°53'0 0.0
2016-Jan-31 00:31N 01°16' E 103°53'0 0.0
2016-Jan-30 23:31N 01°16' E 103°53'0 0.0
2016-Jan-30 22:31N 01°16' E 103°53'0 0.0
2016-Jan-30 21:31N 01°16' E 103°53'0 0.0
2016-Jan-30 20:28N 01°16' E 103°53'0 0.0
2016-Jan-30 19:31N 01°16' E 103°53'0 0.0
2016-Jan-30 18:28N 01°16' E 103°53'0 0.0
2016-Jan-30 17:28N 01°16' E 103°53'0 0.0
2016-Jan-30 16:31N 01°16' E 103°53'0 0.0
2016-Jan-30 15:28N 01°16' E 103°53'0 0.0
2016-Jan-30 14:31N 01°16' E 103°53'0 0.0
2016-Jan-30 13:31N 01°16' E 103°53'0 0.0
2016-Jan-30 12:31N 01°16' E 103°53'0 0.0
2016-Jan-30 11:25N 01°16' E 103°53'0 0.0
2016-Jan-30 10:28N 01°16' E 103°53'0 0.0
2016-Jan-30 09:28N 01°16' E 103°53'0 0.0
2016-Jan-30 08:31N 01°16' E 103°53'0 0.0
2016-Jan-30 07:31N 01°16' E 103°53'4 3.9
2016-Jan-30 06:34N 01°13' E 103°51'2 2.0
2016-Jan-30 05:26N 01°13' E 103°49'5 5.3
2016-Jan-30 04:33N 01°14' E 103°54'5 5.4
2016-Jan-30 03:34N 01°15' E 103°59'6 5.6
2016-Jan-30 02:33N 01°16' E 104°04'  
Track history (hours):
 
Tides and Currents Weather Stations Pressure Air Temp Water Temp Dewpoint Dewpoint Depression Visibility Wind Speed Wind Dir Waves Ship Positions

Ocean Outback

Last reported at 2016-Feb-01 07:32 UTC. Time now 2016-Feb-12 22:34 UTC.
Position N 01°18' E 103°39'.
Warning: this ship's position is 11 days out of date.

Length 136 m; draft 6.8 m.

Type: Ship. MMSI: 563745000.

Date/timePositionNaut miles runAvg speedWind from/ knotsBaromVisibWave heightAir tempDewpointWater temp
2016-Feb-01 07:32N 01°18' E 103°39'6 6.2
2016-Feb-01 06:33N 01°11' E 103°40'8 8.4
2016-Feb-01 05:33N 01°11' E 103°48'7 6.1
2016-Feb-01 04:25N 01°16' E 103°53'0 0.0
2016-Feb-01 03:28N 01°16' E 103°53'0 0.0
2016-Feb-01 02:31N 01°16' E 103°53'0 0.1
2016-Feb-01 01:31N 01°16' E 103°53'0 0.0
2016-Feb-01 00:28N 01°16' E 103°53'0 0.0
2016-Jan-31 23:28N 01°16' E 103°53'0 0.0
2016-Jan-31 22:28N 01°16' E 103°53'0 0.0
2016-Jan-31 21:28N 01°16' E 103°53'0 0.0
2016-Jan-31 20:31N 01°16' E 103°53'0 0.1
2016-Jan-31 19:31N 01°16' E 103°53'0 0.0
2016-Jan-31 18:31N 01°16' E 103°53'0 0.0
2016-Jan-31 17:28N 01°16' E 103°53'0 0.0
2016-Jan-31 16:31N 01°16' E 103°53'0 0.0
2016-Jan-31 15:31N 01°16' E 103°53'0 0.0
2016-Jan-31 14:31N 01°16' E 103°53'0 0.0
2016-Jan-31 13:31N 01°16' E 103°53'0 0.0
2016-Jan-31 12:31N 01°16' E 103°53'0 0.1
2016-Jan-31 11:28N 01°16' E 103°53'0 0.0
2016-Jan-31 10:31N 01°16' E 103°53'0 0.0
2016-Jan-31 09:31N 01°16' E 103°53'0 0.0
2016-Jan-31 08:28N 01°16' E 103°53'0 0.0
2016-Jan-31 07:31N 01°16' E 103°53'0 0.1
2016-Jan-31 06:31N 01°16' E 103°53'0 0.0
2016-Jan-31 05:31N 01°16' E 103°53'0 0.0
2016-Jan-31 04:31N 01°16' E 103°53'0 0.0
2016-Jan-31 03:28N 01°16' E 103°53'0 0.0
2016-Jan-31 02:25N 01°16' E 103°53'0 0.0
2016-Jan-31 01:31N 01°16' E 103°53'0 0.0
2016-Jan-31 00:31N 01°16' E 103°53'0 0.0
2016-Jan-30 23:31N 01°16' E 103°53'0 0.0
2016-Jan-30 22:31N 01°16' E 103°53'0 0.0
2016-Jan-30 21:31N 01°16' E 103°53'0 0.0
2016-Jan-30 20:28N 01°16' E 103°53'0 0.0
2016-Jan-30 19:31N 01°16' E 103°53'0 0.0
2016-Jan-30 18:28N 01°16' E 103°53'0 0.0
2016-Jan-30 17:28N 01°16' E 103°53'0 0.0
2016-Jan-30 16:31N 01°16' E 103°53'0 0.0
2016-Jan-30 15:28N 01°16' E 103°53'0 0.0
2016-Jan-30 14:31N 01°16' E 103°53'0 0.0
2016-Jan-30 13:31N 01°16' E 103°53'0 0.0
2016-Jan-30 12:31N 01°16' E 103°53'0 0.0
2016-Jan-30 11:25N 01°16' E 103°53'0 0.0
2016-Jan-30 10:28N 01°16' E 103°53'0 0.0
2016-Jan-30 09:28N 01°16' E 103°53'0 0.0
2016-Jan-30 08:31N 01°16' E 103°53'0 0.0
2016-Jan-30 07:31N 01°16' E 103°53'4 3.9
2016-Jan-30 06:34N 01°13' E 103°51'2 2.0
2016-Jan-30 05:26N 01°13' E 103°49'5 5.3
2016-Jan-30 04:33N 01°14' E 103°54'5 5.4
2016-Jan-30 03:34N 01°15' E 103°59'6 5.6
2016-Jan-30 02:33N 01°16' E 104°04'  

Dump ship's entire track history